createdAt,value
2023-04-21T00:01:39.481Z,101295.78
2023-04-21T00:04:08.278Z,101296.66
2023-04-21T00:06:37.689Z,101296.66
2023-04-21T00:09:05.778Z,101294.00
2023-04-21T00:11:33.501Z,101294.00
2023-04-21T00:14:01.248Z,101292.25
2023-04-21T00:16:29.407Z,101296.72
2023-04-21T00:18:57.185Z,101285.13
2023-04-21T00:21:25.212Z,101303.78
2023-04-21T00:23:54.441Z,101285.13
2023-04-21T00:26:22.193Z,101288.66
2023-04-21T00:28:49.944Z,101287.78
2023-04-21T00:31:17.817Z,101279.78
2023-04-21T00:33:45.626Z,101279.78
2023-04-21T00:36:13.589Z,101276.25
2023-04-21T00:38:41.360Z,101274.44
2023-04-21T00:41:10.561Z,101268.25
2023-04-21T00:43:38.301Z,101270.91
2023-04-21T00:46:06.052Z,101261.13
2023-04-21T00:48:33.843Z,101256.69
2023-04-21T00:51:01.622Z,101246.03
2023-04-21T00:53:30.106Z,101248.69
2023-04-21T00:55:57.864Z,101240.69
2023-04-21T00:58:26.924Z,101245.09
2023-04-21T01:00:54.726Z,101251.31
2023-04-21T01:03:22.816Z,101246.00
2023-04-21T01:05:50.744Z,101245.16
2023-04-21T01:08:18.517Z,101246.03
2023-04-21T01:10:46.192Z,101259.34
2023-04-21T01:13:14.147Z,101253.09
2023-04-21T01:15:43.252Z,101255.78
2023-04-21T01:18:11.786Z,101252.22
2023-04-21T01:20:40.139Z,101244.22
2023-04-21T01:23:09.266Z,101247.75
2023-04-21T01:25:37.234Z,101239.75
2023-04-21T01:28:05.195Z,101241.50
2023-04-21T01:30:32.904Z,101245.09
2023-04-21T01:33:00.764Z,101240.63
2023-04-21T01:35:28.694Z,101231.75
2023-04-21T01:37:56.478Z,101222.84
2023-04-21T01:40:25.537Z,101238.84
2023-04-21T01:42:53.356Z,101234.38
2023-04-21T01:45:21.268Z,101229.97
2023-04-21T01:47:49.138Z,101229.97
2023-04-21T01:50:16.906Z,101243.31
2023-04-21T01:52:44.723Z,101237.09
2023-04-21T01:55:12.520Z,101226.41
2023-04-21T01:57:41.707Z,101223.75
2023-04-21T02:00:10.735Z,101221.09
2023-04-21T02:02:38.514Z,101215.78
2023-04-21T02:05:07.207Z,101212.22
2023-04-21T02:07:35.009Z,101211.28
2023-04-21T02:10:03.338Z,101205.09
2023-04-21T02:12:31.102Z,101212.22
2023-04-21T02:15:00.276Z,101220.22
2023-04-21T02:17:28.002Z,101227.31
2023-04-21T02:19:55.799Z,101230.00
2023-04-21T02:22:23.618Z,101216.66
2023-04-21T02:24:52.036Z,101211.34
2023-04-21T02:27:19.770Z,101219.34
2023-04-21T02:29:47.489Z,101210.47
2023-04-21T02:32:25.535Z,101213.13
2023-04-21T02:34:53.846Z,101214.91
2023-04-21T02:37:21.628Z,101208.66
2023-04-21T02:39:49.351Z,101206.00
2023-04-21T02:42:17.070Z,101209.56
2023-04-21T02:44:44.801Z,101196.22
2023-04-21T02:47:12.552Z,101201.56
2023-04-21T02:49:45.035Z,101205.13
2023-04-21T02:52:12.651Z,101204.22
2023-04-21T02:54:40.349Z,101207.78
2023-04-21T02:57:08.191Z,101206.88
2023-04-21T02:59:35.956Z,101208.66
2023-04-21T03:02:04.038Z,101201.56
2023-04-21T03:04:32.586Z,101205.13
2023-04-21T03:07:02.082Z,101206.00
2023-04-21T03:09:29.972Z,101212.25
2023-04-21T03:11:57.794Z,101201.56
2023-04-21T03:14:25.521Z,101199.78
2023-04-21T03:16:53.385Z,101201.53
2023-04-21T03:19:21.504Z,101198.88
2023-04-21T03:21:49.475Z,101201.53
2023-04-21T03:24:19.414Z,101206.00
2023-04-21T03:26:47.203Z,101205.09
2023-04-21T03:29:15.028Z,101204.22
2023-04-21T03:31:42.988Z,101208.66
2023-04-21T03:34:10.860Z,101206.00
2023-04-21T03:36:38.663Z,101212.22
2023-04-21T03:39:19.314Z,101207.75
2023-04-21T03:41:49.390Z,101206.00
2023-04-21T03:44:26.397Z,101209.53
2023-04-21T03:46:54.461Z,101206.88
2023-04-21T03:49:22.636Z,101201.53
2023-04-21T03:51:50.715Z,101210.41
2023-04-21T03:54:18.421Z,101197.09
2023-04-21T03:56:46.229Z,101206.88
2023-04-21T03:59:15.429Z,101204.22
2023-04-21T04:01:43.426Z,101205.09
2023-04-21T04:04:11.409Z,101192.63
2023-04-21T04:06:39.260Z,101192.63
2023-04-21T04:09:08.669Z,101194.41
2023-04-21T04:11:36.409Z,101193.53
2023-04-21T04:14:04.638Z,101202.41
2023-04-21T04:16:35.241Z,101188.19
2023-04-21T04:19:03.745Z,101188.16
2023-04-21T04:21:32.683Z,101189.06
2023-04-21T04:24:00.527Z,101194.41
2023-04-21T04:26:28.446Z,101198.88
2023-04-21T04:28:56.791Z,101197.97
2023-04-21T04:31:25.383Z,101197.06
2023-04-21T04:33:55.451Z,101187.28
2023-04-21T04:36:24.175Z,101193.50
2023-04-21T04:38:52.087Z,101197.06
2023-04-21T04:41:21.037Z,101190.81
2023-04-21T04:43:48.969Z,101191.75
2023-04-21T04:46:17.327Z,101205.09
2023-04-21T04:48:45.190Z,101204.22
2023-04-21T04:51:14.361Z,101207.75
2023-04-21T04:53:42.131Z,101197.09
2023-04-21T04:56:09.930Z,101203.34
2023-04-21T04:58:37.902Z,101202.41
2023-04-21T05:01:13.664Z,101213.09
2023-04-21T05:03:41.740Z,101219.34
2023-04-21T05:06:09.839Z,101215.78
2023-04-21T05:08:40.250Z,101214.88
2023-04-21T05:11:08.549Z,101221.13
2023-04-21T05:13:38.388Z,101216.66
2023-04-21T05:16:09.795Z,101210.47
2023-04-21T05:18:37.649Z,101220.25
2023-04-21T05:21:05.603Z,101218.47
2023-04-21T05:23:33.340Z,101211.38
2023-04-21T05:26:04.699Z,101221.13
2023-04-21T05:28:33.206Z,101222.03
2023-04-21T05:31:01.196Z,101221.16
2023-04-21T05:33:32.399Z,101214.91
2023-04-21T05:36:00.260Z,101216.69
2023-04-21T05:38:28.298Z,101225.63
2023-04-21T05:40:56.439Z,101224.72
2023-04-21T05:43:25.673Z,101228.28
2023-04-21T05:45:53.670Z,101222.94
2023-04-21T05:48:21.573Z,101228.31
2023-04-21T05:50:49.237Z,101229.16
2023-04-21T05:53:17.218Z,101237.19
2023-04-21T05:55:44.987Z,101230.97
2023-04-21T05:58:12.915Z,101234.56
2023-04-21T06:00:42.098Z,101230.09
2023-04-21T06:03:10.287Z,101229.22
2023-04-21T06:05:38.656Z,101229.22
2023-04-21T06:08:06.837Z,101217.63
2023-04-21T06:10:41.165Z,101217.66
2023-04-21T06:13:08.956Z,101219.41
2023-04-21T06:15:36.781Z,101213.16
2023-04-21T06:18:06.293Z,101211.31
2023-04-21T06:20:34.255Z,101213.09
2023-04-21T06:23:02.370Z,101216.63
2023-04-21T06:25:30.204Z,101214.84
2023-04-21T06:27:57.961Z,101216.63
2023-04-21T06:30:26.164Z,101217.47
2023-04-21T06:32:54.034Z,101225.47
2023-04-21T06:35:23.327Z,101237.91
2023-04-21T06:37:51.223Z,101220.97
2023-04-21T06:40:19.448Z,101214.66
2023-04-21T06:42:47.393Z,101224.47
2023-04-21T06:45:15.232Z,101217.34
2023-04-21T06:47:44.974Z,101210.16
2023-04-21T06:50:14.565Z,101212.84
2023-04-21T06:52:44.136Z,101201.22
2023-04-21T06:55:12.370Z,101205.75
2023-04-21T06:57:40.293Z,101211.09
2023-04-21T07:00:09.811Z,101205.75
2023-04-21T07:02:37.720Z,101211.06
2023-04-21T07:05:06.249Z,101209.25
2023-04-21T07:07:34.031Z,101205.72
2023-04-21T07:10:03.402Z,101216.41
2023-04-21T07:12:31.485Z,101207.47
2023-04-21T07:14:59.371Z,101210.13
2023-04-21T07:17:27.468Z,101206.53
2023-04-21T07:19:55.351Z,101209.19
2023-04-21T07:22:23.116Z,101202.94
2023-04-21T07:24:51.406Z,101212.72
2023-04-21T07:27:59.250Z,101204.75
2023-04-21T07:30:31.618Z,101208.31
2023-04-21T07:32:59.653Z,101202.94
2023-04-21T07:35:30.690Z,101202.88
2023-04-21T07:38:15.054Z,101198.38
2023-04-21T07:40:46.346Z,101195.63
2023-04-21T07:43:14.674Z,101197.34
2023-04-21T07:46:55.012Z,101189.25
2023-04-21T07:49:24.712Z,101192.72
2023-04-21T07:51:56.986Z,101191.81
2023-04-21T07:54:39.500Z,101192.72
2023-04-21T07:57:13.665Z,101191.78
2023-04-21T07:59:42.684Z,101193.44
2023-04-21T08:02:10.970Z,101191.63
2023-04-21T08:04:40.754Z,101186.16
2023-04-21T08:07:10.411Z,101196.63
2023-04-21T08:09:42.122Z,101191.94
2023-04-21T08:12:13.122Z,101188.09
2023-04-21T08:14:41.480Z,101184.31
2023-04-21T08:17:09.436Z,101185.03
2023-04-21T08:19:37.686Z,101185.91
2023-04-21T08:22:11.048Z,101196.66
2023-04-21T08:24:39.925Z,101191.25
2023-04-21T08:27:08.287Z,101183.16
2023-04-21T08:29:36.270Z,101191.19
2023-04-21T08:32:10.223Z,101186.56
2023-04-21T08:34:38.273Z,101191.94
2023-04-21T08:37:07.615Z,101192.69
2023-04-21T08:39:35.790Z,101189.00
2023-04-21T08:42:23.831Z,101201.34
2023-04-21T08:44:51.767Z,101199.47
2023-04-21T08:47:21.880Z,101202.22
2023-04-21T08:49:52.018Z,101195.84
2023-04-21T08:52:21.365Z,101199.28
2023-04-21T08:54:53.562Z,101190.28
2023-04-21T08:57:22.268Z,101196.41
2023-04-21T08:59:50.108Z,101189.00
2023-04-21T09:02:20.499Z,101187.91
2023-04-21T09:04:50.666Z,101193.06
2023-04-21T09:07:33.784Z,101195.53
2023-04-21T09:10:05.806Z,101196.38
2023-04-21T09:12:34.073Z,101195.34
2023-04-21T09:15:09.331Z,101194.44
2023-04-21T09:17:38.632Z,101192.72
2023-04-21T09:20:15.575Z,101190.75
2023-04-21T09:22:45.674Z,101180.97
2023-04-21T09:25:17.966Z,101197.06
2023-04-21T09:27:48.500Z,101194.28
2023-04-21T09:30:25.227Z,101201.34
2023-04-21T09:32:57.756Z,101196.63
2023-04-21T09:35:28.959Z,101190.47
2023-04-21T09:37:58.156Z,101186.88
2023-04-21T09:40:26.099Z,101192.94
2023-04-21T09:42:54.062Z,101188.31
2023-04-21T09:45:36.961Z,101179.97
2023-04-21T09:48:10.612Z,101181.69
2023-04-21T09:51:20.917Z,101181.59
2023-04-21T09:53:30.677Z,101178.69
2023-04-21T09:56:00.556Z,101175.44
2023-04-21T09:58:33.363Z,101168.09
2023-04-21T10:01:07.498Z,101172.97
2023-04-21T10:03:40.032Z,101179.63
2023-04-21T10:06:09.368Z,101175.56
2023-04-21T10:08:39.811Z,101175.25
2023-04-21T10:11:10.788Z,101158.88
2023-04-21T10:13:39.829Z,101160.06
2023-04-21T10:16:09.510Z,101154.09
2023-04-21T10:18:40.693Z,101148.69
2023-04-21T10:21:10.403Z,101149.59
2023-04-21T10:23:40.601Z,101148.81
2023-04-21T10:26:12.168Z,101143.69
2023-04-21T10:28:50.233Z,101150.91
2023-04-21T10:31:20.233Z,101156.13
2023-04-21T10:34:23.575Z,101143.69
2023-04-21T10:37:11.454Z,101144.47
2023-04-21T10:39:53.454Z,101137.97
2023-04-21T10:42:38.851Z,101127.69
2023-04-21T10:45:12.315Z,101135.38
2023-04-21T10:47:51.687Z,101133.13
2023-04-21T10:50:22.996Z,101136.44
2023-04-21T10:52:56.879Z,101122.09
2023-04-21T10:55:30.022Z,101125.03
2023-04-21T10:57:59.296Z,101123.22
2023-04-21T11:00:27.618Z,101123.34
2023-04-21T11:02:58.057Z,101120.69
2023-04-21T11:05:36.498Z,101121.41
2023-04-21T11:08:15.559Z,101123.28
2023-04-21T11:10:46.883Z,101126.16
2023-04-21T11:13:14.766Z,101112.03
2023-04-21T11:15:43.149Z,101103.16
2023-04-21T11:18:11.157Z,101100.34
2023-04-21T11:20:46.259Z,101098.56
2023-04-21T11:23:19.017Z,101090.19
2023-04-21T11:25:50.678Z,101086.53
2023-04-21T11:28:24.667Z,101086.47
2023-04-21T11:30:52.777Z,101086.16
2023-04-21T11:33:20.983Z,101075.06
2023-04-21T11:35:49.782Z,101074.25
2023-04-21T11:38:18.944Z,101077.44
2023-04-21T11:40:50.035Z,101070.75
2023-04-21T11:43:18.388Z,101064.19
2023-04-21T11:45:51.369Z,101071.25
2023-04-21T11:48:20.876Z,101070.50
2023-04-21T11:50:49.872Z,101066.16
2023-04-21T11:53:18.624Z,101062.66
2023-04-21T11:55:48.574Z,101052.06
2023-04-21T11:58:17.885Z,101050.22
2023-04-21T12:00:46.900Z,101046.34
2023-04-21T12:03:16.461Z,101044.97
2023-04-21T12:05:44.697Z,101038.28
2023-04-21T12:08:16.699Z,101031.47
2023-04-21T12:10:50.378Z,101032.53
2023-04-21T12:13:24.652Z,101023.13
2023-04-21T12:15:52.815Z,101022.78
2023-04-21T12:18:27.359Z,101021.56
2023-04-21T12:20:56.386Z,101019.63
2023-04-21T12:23:24.853Z,101011.47
2023-04-21T12:25:54.425Z,101003.91
2023-04-21T12:28:22.373Z,101006.94
2023-04-21T12:30:50.948Z,101002.44
2023-04-21T12:33:19.334Z,100982.03
2023-04-21T12:35:47.365Z,100971.56
2023-04-21T12:38:15.306Z,100971.69
2023-04-21T12:40:43.413Z,100971.22
2023-04-21T12:43:13.067Z,100961.19
2023-04-21T12:45:41.187Z,100952.25
2023-04-21T12:48:09.691Z,100951.75
2023-04-21T12:50:37.659Z,100947.72
2023-04-21T12:53:08.439Z,100941.00
2023-04-21T12:55:36.608Z,100944.47
2023-04-21T12:58:06.574Z,100947.81
2023-04-21T13:00:38.673Z,100948.66
2023-04-21T13:03:11.660Z,100947.19
2023-04-21T13:05:40.108Z,100941.25
2023-04-21T13:08:08.599Z,100931.03
2023-04-21T13:10:36.635Z,100933.56
2023-04-21T13:13:04.649Z,100920.72
2023-04-21T13:15:32.529Z,100933.13
2023-04-21T13:18:01.889Z,100931.88
2023-04-21T13:20:29.781Z,100932.28
2023-04-21T13:22:57.854Z,100930.22
2023-04-21T13:25:25.851Z,100931.34
2023-04-21T13:27:53.820Z,100931.19
2023-04-21T13:30:22.044Z,100921.34
2023-04-21T13:32:50.185Z,100917.06
2023-04-21T13:35:19.768Z,100907.03
2023-04-21T13:37:49.257Z,100910.16
2023-04-21T13:40:23.960Z,100903.41
2023-04-21T13:42:51.854Z,100898.47
2023-04-21T13:45:19.873Z,100895.63
2023-04-21T13:47:47.755Z,100891.50
2023-04-21T13:50:15.996Z,100888.44
2023-04-21T13:52:45.962Z,100884.88
2023-04-21T13:55:14.168Z,100885.59
2023-04-21T13:57:42.273Z,100875.41
2023-04-21T14:00:12.176Z,100875.59
2023-04-21T14:02:41.984Z,100862.66
2023-04-21T14:05:10.213Z,100856.63
2023-04-21T14:07:38.850Z,100851.41
2023-04-21T14:10:11.934Z,100846.59
2023-04-21T14:12:39.800Z,100847.31
2023-04-21T14:15:09.254Z,100830.84
2023-04-21T14:17:37.260Z,100837.91
2023-04-21T14:20:07.447Z,100830.34
2023-04-21T14:22:35.221Z,100829.25
2023-04-21T14:25:05.815Z,100825.38
2023-04-21T14:27:35.352Z,100821.84
2023-04-21T14:30:03.704Z,100812.69
2023-04-21T14:32:31.876Z,100810.34
2023-04-21T14:35:03.418Z,100807.28
2023-04-21T14:37:31.681Z,100791.38
2023-04-21T14:39:59.601Z,100794.00
2023-04-21T14:42:28.036Z,100794.06
2023-04-21T14:44:57.437Z,100786.31
2023-04-21T14:47:26.028Z,100787.56
2023-04-21T14:49:55.939Z,100781.41
2023-04-21T14:52:27.196Z,100783.63
2023-04-21T14:54:55.190Z,100776.59
2023-04-21T14:57:23.264Z,100768.16
2023-04-21T14:59:51.980Z,100762.56
2023-04-21T15:02:22.530Z,100761.56
2023-04-21T15:04:51.029Z,100763.41
2023-04-21T15:07:23.861Z,100771.22
2023-04-21T15:09:52.723Z,100765.41
2023-04-21T15:12:20.749Z,100761.13
2023-04-21T15:14:48.579Z,100757.44
2023-04-21T15:17:16.818Z,100753.72
2023-04-21T15:19:57.056Z,100754.16
2023-04-21T15:22:24.896Z,100748.63
2023-04-21T15:24:54.562Z,100747.09
2023-04-21T15:27:23.221Z,100747.41
2023-04-21T15:29:51.142Z,100745.66
2023-04-21T15:32:19.610Z,100741.09
2023-04-21T15:34:49.173Z,100728.44
2023-04-21T15:37:19.141Z,100729.81
2023-04-21T15:39:47.038Z,100726.47
2023-04-21T15:42:19.958Z,100728.16
2023-04-21T15:44:47.838Z,100724.00
2023-04-21T15:47:16.968Z,100724.94
2023-04-21T15:49:46.076Z,100720.56
2023-04-21T15:52:23.931Z,100706.03
2023-04-21T15:54:52.089Z,100697.44
2023-04-21T15:57:19.915Z,100701.38
2023-04-21T15:59:47.645Z,100703.66
2023-04-21T16:02:15.723Z,100693.16
2023-04-21T16:04:44.754Z,100681.78
2023-04-21T16:07:13.042Z,100678.78
2023-04-21T16:09:42.180Z,100680.00
2023-04-21T16:12:10.536Z,100682.25
2023-04-21T16:14:53.344Z,100680.06
2023-04-21T16:17:26.466Z,100669.09
2023-04-21T16:19:54.527Z,100666.22
2023-04-21T16:22:22.495Z,100670.53
2023-04-21T16:24:53.145Z,100674.72
2023-04-21T16:27:20.951Z,100667.13
2023-04-21T16:29:50.228Z,100668.06
2023-04-21T16:32:18.043Z,100668.13
2023-04-21T16:34:45.993Z,100666.13
2023-04-21T16:37:13.878Z,100664.78
2023-04-21T16:39:41.714Z,100668.06
2023-04-21T16:42:11.179Z,100663.38
2023-04-21T16:44:39.206Z,100667.91
2023-04-21T16:47:07.658Z,100660.69
2023-04-21T16:49:35.717Z,100657.00
2023-04-21T16:52:03.550Z,100650.63
2023-04-21T16:54:31.474Z,100654.94
2023-04-21T16:56:59.246Z,100652.41
2023-04-21T16:59:29.120Z,100644.56
2023-04-21T17:01:58.464Z,100648.31
2023-04-21T17:04:26.289Z,100640.41
2023-04-21T17:06:54.171Z,100649.78
2023-04-21T17:09:21.937Z,100649.03
2023-04-21T17:11:49.761Z,100644.78
2023-04-21T17:14:17.531Z,100634.16
2023-04-21T17:16:51.637Z,100628.00
2023-04-21T17:19:19.981Z,100624.56
2023-04-21T17:21:47.767Z,100620.25
2023-04-21T17:24:15.676Z,100621.03
2023-04-21T17:26:43.514Z,100619.00
2023-04-21T17:29:11.588Z,100615.34
2023-04-21T17:31:39.517Z,100621.41
2023-04-21T17:34:09.944Z,100620.56
2023-04-21T17:36:39.438Z,100613.22
2023-04-21T17:39:08.276Z,100610.66
2023-04-21T17:41:36.092Z,100616.53
2023-04-21T17:44:04.597Z,100616.53
2023-04-21T17:46:32.515Z,100608.50
2023-04-21T17:49:00.648Z,100615.88
2023-04-21T17:51:30.231Z,100616.63
2023-04-21T17:53:58.087Z,100615.31
2023-04-21T17:56:26.028Z,100618.75
2023-04-21T17:58:53.821Z,100617.47
2023-04-21T18:01:21.614Z,100626.91
2023-04-21T18:03:49.523Z,100622.91
2023-04-21T18:06:17.523Z,100637.59
2023-04-21T18:08:46.683Z,100631.81
2023-04-21T18:11:14.550Z,100640.16
2023-04-21T18:13:42.368Z,100644.03
2023-04-21T18:16:10.552Z,100644.38
2023-04-21T18:18:38.520Z,100649.09
2023-04-21T18:21:06.501Z,100654.75
2023-04-21T18:23:34.722Z,100658.50
2023-04-21T18:26:04.036Z,100653.28
2023-04-21T18:28:32.027Z,100645.50
2023-04-21T18:30:59.879Z,100633.13
2023-04-21T18:33:27.900Z,100626.19
2023-04-21T18:35:55.690Z,100622.91
2023-04-21T18:38:23.412Z,100619.59
2023-04-21T18:40:51.478Z,100629.22
2023-04-21T18:43:21.245Z,100639.41
2023-04-21T18:45:49.033Z,100630.50
2023-04-21T18:48:16.875Z,100631.88
2023-04-21T18:50:44.817Z,100644.06
2023-04-21T18:53:15.026Z,100652.28
2023-04-21T18:55:45.583Z,100657.06
2023-04-21T18:58:21.091Z,100657.97
2023-04-21T19:00:49.011Z,100665.41
2023-04-21T19:03:17.045Z,100669.94
2023-04-21T19:05:44.979Z,100674.47
2023-04-21T19:08:12.941Z,100669.22
2023-04-21T19:10:40.841Z,100662.16
2023-04-21T19:13:08.682Z,100664.94
2023-04-21T19:15:38.583Z,100668.66
2023-04-21T19:18:06.512Z,100666.16
2023-04-21T19:20:35.754Z,100660.03
2023-04-21T19:23:03.837Z,100658.28
2023-04-21T19:25:34.375Z,100661.84
2023-04-21T19:28:02.654Z,100664.78
2023-04-21T19:30:30.927Z,100662.16
2023-04-21T19:33:03.101Z,100668.41
2023-04-21T19:35:30.900Z,100667.50
2023-04-21T19:37:59.159Z,100661.16
2023-04-21T19:40:32.685Z,100660.38
2023-04-21T19:43:01.959Z,100664.00
2023-04-21T19:45:29.840Z,100667.03
2023-04-21T19:47:58.248Z,100658.91
2023-04-21T19:50:27.435Z,100684.81
2023-04-21T19:52:55.180Z,100716.19
2023-04-21T19:55:23.158Z,100732.72
2023-04-21T19:57:51.097Z,100739.97
2023-04-21T20:00:20.343Z,100743.75
2023-04-21T20:02:48.475Z,100735.88
2023-04-21T20:05:16.455Z,100748.41
2023-04-21T20:07:49.020Z,100728.72
2023-04-21T20:10:17.330Z,100717.19
2023-04-21T20:12:45.052Z,100731.59
2023-04-21T20:15:13.767Z,100737.03
2023-04-21T20:17:41.925Z,100744.44
2023-04-21T20:20:21.672Z,100744.63
2023-04-21T20:22:51.298Z,100758.44
2023-04-21T20:25:19.260Z,100793.44
2023-04-21T20:27:47.336Z,100783.00
2023-04-21T20:30:15.626Z,100775.97
2023-04-21T20:32:43.669Z,100758.25
2023-04-21T20:35:16.246Z,100746.69
2023-04-21T20:37:47.976Z,100747.66
2023-04-21T20:40:18.927Z,100751.38
2023-04-21T20:42:47.300Z,100745.19
2023-04-21T20:45:17.343Z,100740.78
2023-04-21T20:47:45.189Z,100730.06
2023-04-21T20:50:13.339Z,100724.75
2023-04-21T20:52:41.111Z,100701.56
2023-04-21T20:55:09.367Z,100690.09
2023-04-21T20:57:39.318Z,100669.56
2023-04-21T21:00:09.693Z,100655.44
2023-04-21T21:02:38.246Z,100644.00
2023-04-21T21:05:06.910Z,100635.28
2023-04-21T21:07:35.247Z,100625.59
2023-04-21T21:10:03.494Z,100619.31
2023-04-21T21:12:31.280Z,100628.31
2023-04-21T21:15:00.378Z,100636.59
2023-04-21T21:17:28.751Z,100636.66
2023-04-21T21:19:56.587Z,100635.84
2023-04-21T21:22:24.251Z,100641.22
2023-04-21T21:24:52.178Z,100665.44
2023-04-21T21:27:20.578Z,100676.25
2023-04-21T21:29:50.951Z,100672.69
2023-04-21T21:32:20.539Z,100681.72
2023-04-21T21:34:49.577Z,100689.00
2023-04-21T21:37:21.263Z,100694.47
2023-04-21T21:39:49.272Z,100697.25
2023-04-21T21:42:18.993Z,100686.56
2023-04-21T21:44:46.972Z,100688.41
2023-04-21T21:47:14.903Z,100681.38
2023-04-21T21:49:44.222Z,100669.84
2023-04-21T21:52:12.036Z,100681.63
2023-04-21T21:54:39.928Z,100696.31
2023-04-21T21:57:08.025Z,100701.59
2023-04-21T21:59:36.053Z,100701.56
2023-04-21T22:02:04.199Z,100715.91
2023-04-21T22:04:32.188Z,100699.84
2023-04-21T22:07:01.706Z,100692.72
2023-04-21T22:09:31.891Z,100698.19
2023-04-21T22:11:59.607Z,100706.28
2023-04-21T22:14:28.008Z,100695.66
2023-04-21T22:16:57.253Z,100696.63
2023-04-21T22:19:25.684Z,100702.97
2023-04-21T22:21:53.471Z,100702.16
2023-04-21T22:24:22.654Z,100697.72
2023-04-21T22:26:50.413Z,100702.22
2023-04-21T22:29:18.119Z,100703.25
2023-04-21T22:31:46.013Z,100695.25
2023-04-21T22:34:16.695Z,100693.53
2023-04-21T22:36:44.569Z,100693.59
2023-04-21T22:39:12.395Z,100695.44
2023-04-21T22:41:41.926Z,100707.22
2023-04-21T22:44:10.027Z,100700.28
2023-04-21T22:46:37.978Z,100706.50
2023-04-21T22:49:05.915Z,100709.16
2023-04-21T22:51:33.754Z,100712.72
2023-04-21T22:54:01.754Z,100708.31
2023-04-21T22:56:30.890Z,100707.41
2023-04-21T22:59:00.374Z,100703.00
2023-04-21T23:01:29.232Z,100705.72
2023-04-21T23:03:57.301Z,100697.72
2023-04-21T23:06:25.116Z,100693.25
2023-04-21T23:08:53.025Z,100700.44
2023-04-21T23:11:21.027Z,100697.81
2023-04-21T23:13:48.780Z,100705.88
2023-04-21T23:16:17.932Z,100696.13
2023-04-21T23:18:45.723Z,100683.72
2023-04-21T23:21:13.873Z,100691.81
2023-04-21T23:23:41.640Z,100675.78
2023-04-21T23:26:09.392Z,100683.78
2023-04-21T23:28:37.103Z,100679.41
2023-04-21T23:31:04.789Z,100681.25
2023-04-21T23:33:33.957Z,100666.13
2023-04-21T23:36:01.749Z,100667.91
2023-04-21T23:38:29.534Z,100666.13
2023-04-21T23:40:57.266Z,100668.81
2023-04-21T23:43:25.018Z,100666.13
2023-04-21T23:45:52.978Z,100667.94
2023-04-21T23:48:20.657Z,100668.88
2023-04-21T23:50:49.844Z,100664.53
2023-04-21T23:53:37.672Z,100671.69
2023-04-21T23:56:05.513Z,100665.44
2023-04-21T23:58:33.256Z,100669.91
